This is the latest recevied weather packets stored in our database for station/object F4CYQ-10. If no packets are shown the sender has not sent any weather packets the latest 10 day(s).
| Time | Temp. | Humidity | Pressure | Rain* | Wind** | Luminosity | Snow |
|---|---|---|---|---|---|---|---|
| 1777706857 | 18.89° C | 52% | 1017.8 hPa | - | - | - | - |
| 1777705956 | 20.56° C | 51% | 1017.6 hPa | - | - | - | - |
| 1777705770 | 19.44° C | 51% | 1017.5 hPa | - | - | - | - |
| 1777704869 | 20.56° C | 50% | 1017.7 hPa | - | - | - | - |
| 1777703968 | 20° C | 50% | 1017.7 hPa | - | - | - | - |
| 1777703067 | 21.11° C | 50% | 1017.9 hPa | - | - | - | - |
| 1777702711 | 19.44° C | 50% | 1017.9 hPa | - | - | - | - |
| 1777701810 | 19.44° C | 49% | 1017.8 hPa | - | - | - | - |
| 1777701301 | 20° C | 56% | 1018 hPa | - | - | - | - |
| 1777700909 | 18.89° C | 55% | 1017.9 hPa | - | - | - | - |
| 1777700008 | 20° C | 56% | 1018 hPa | - | - | - | - |
| 1777699546 | 20° C | 56% | 1017.9 hPa | - | - | - | - |
| 1777698644 | 20° C | 57% | 1017.9 hPa | - | - | - | - |
| 1777697743 | 20° C | 57% | 1017.9 hPa | - | - | - | - |
| 1777696842 | -5° C | 100% | 4.8 hPa | - | - | - | - |
| 1777696434 | 20.56° C | 57% | 1017.5 hPa | - | - | - | - |
| 1777695533 | 20.56° C | 57% | 1017.5 hPa | - | - | - | - |
| 1777694632 | 20° C | 57% | 1017.7 hPa | - | - | - | - |
| 1777693730 | 21.11° C | 57% | 1017.6 hPa | - | - | - | - |
| 1777693354 | -5° C | 100% | 4.8 hPa | - | - | - | - |
| 1777692870 | 20° C | 57% | 1017.7 hPa | - | - | - | - |
| 1777691969 | 20.56° C | 56% | 1017.7 hPa | - | - | - | - |
| 1777691068 | 20.56° C | 57% | 1018 hPa | - | - | - | - |
| 1777690167 | -5° C | 100% | 4.8 hPa | - | - | - | - |
| 1777689733 | 20° C | 56% | 1017.8 hPa | - | - | - | - |
* Rain since midnight (hover to see other rain measurements)
** Current wind speed in m/s (hover to see current wind gust speed)